sensor_id;sensor_type;location;lat;lon;timestamp;pressure;altitude;pressure_sealevel;temperature;humidity
52393;BME280;38320;39.764;2.710;2023-09-12T08:54:05;100897.94;;;26.83;53.37
52393;BME280;38320;39.764;2.710;2023-09-12T08:56:32;100885.34;;;26.75;54.25
52393;BME280;38320;39.764;2.710;2023-09-12T08:59:00;100898.56;;;26.78;54.00
52393;BME280;38320;39.764;2.710;2023-09-12T09:01:30;100891.66;;;26.82;54.07
52393;BME280;38320;39.764;2.710;2023-09-12T09:03:56;100887.03;;;26.76;54.13
52393;BME280;38320;39.764;2.710;2023-09-12T09:06:22;100885.97;;;26.77;55.97
52393;BME280;38320;39.764;2.710;2023-09-12T09:08:49;100893.91;;;26.45;57.32
52393;BME280;38320;39.764;2.710;2023-09-12T09:11:16;100897.91;;;26.56;56.60
52393;BME280;38320;39.764;2.710;2023-09-12T09:13:42;100892.00;;;26.52;58.81
52393;BME280;38320;39.764;2.710;2023-09-12T09:16:15;100892.25;;;26.57;56.85
52393;BME280;38320;39.764;2.710;2023-09-12T09:21:20;100898.09;;;26.47;58.46
52393;BME280;38320;39.764;2.710;2023-09-12T09:23:49;100893.28;;;26.43;58.43
52393;BME280;38320;39.764;2.710;2023-09-12T09:26:15;100892.66;;;26.41;59.45
52393;BME280;38320;39.764;2.710;2023-09-12T09:28:40;100894.31;;;26.42;58.44
52393;BME280;38320;39.764;2.710;2023-09-12T09:31:13;100889.50;;;26.44;59.03
52393;BME280;38320;39.764;2.710;2023-09-12T09:33:40;100899.78;;;26.42;62.20
52393;BME280;38320;39.764;2.710;2023-09-12T09:36:07;100897.31;;;26.12;64.13
52393;BME280;38320;39.764;2.710;2023-09-12T09:38:36;100911.78;;;26.12;63.01
52393;BME280;38320;39.764;2.710;2023-09-12T09:41:06;100893.84;;;26.18;61.68
52393;BME280;38320;39.764;2.710;2023-09-12T09:43:31;100897.00;;;26.22;60.97
52393;BME280;38320;39.764;2.710;2023-09-12T09:46:00;100903.09;;;26.30;60.98
52393;BME280;38320;39.764;2.710;2023-09-12T09:48:26;100914.94;;;26.09;63.65
52393;BME280;38320;39.764;2.710;2023-09-12T09:51:01;100909.47;;;26.02;64.29
52393;BME280;38320;39.764;2.710;2023-09-12T09:53:28;100910.34;;;26.16;62.25
52393;BME280;38320;39.764;2.710;2023-09-12T09:56:14;100908.72;;;26.29;61.57
52393;BME280;38320;39.764;2.710;2023-09-12T09:58:51;100891.09;;;26.18;62.17
52393;BME280;38320;39.764;2.710;2023-09-12T10:01:19;100915.00;;;26.23;63.89
52393;BME280;38320;39.764;2.710;2023-09-12T10:03:52;100911.47;;;26.36;63.00
52393;BME280;38320;39.764;2.710;2023-09-12T10:06:19;100911.06;;;26.39;63.50
52393;BME280;38320;39.764;2.710;2023-09-12T10:08:46;100913.78;;;26.39;63.44
52393;BME280;38320;39.764;2.710;2023-09-12T10:11:14;100919.66;;;26.42;63.28
52393;BME280;38320;39.764;2.710;2023-09-12T10:13:46;100914.66;;;26.46;63.28
52393;BME280;38320;39.764;2.710;2023-09-12T10:16:16;100920.13;;;26.53;62.91
52393;BME280;38320;39.764;2.710;2023-09-12T10:18:49;100917.81;;;26.56;62.71
52393;BME280;38320;39.764;2.710;2023-09-12T10:21:21;100924.09;;;26.57;63.03
52393;BME280;38320;39.764;2.710;2023-09-12T10:23:51;100918.03;;;26.61;62.72
52393;BME280;38320;39.764;2.710;2023-09-12T10:26:16;100914.88;;;26.58;62.75
52393;BME280;38320;39.764;2.710;2023-09-12T10:28:43;100926.84;;;26.63;62.74
52393;BME280;38320;39.764;2.710;2023-09-12T10:31:11;100921.16;;;26.45;64.58
52393;BME280;38320;39.764;2.710;2023-09-12T10:33:37;100933.94;;;26.51;64.10
52393;BME280;38320;39.764;2.710;2023-09-12T10:36:03;100917.38;;;26.53;63.57
52393;BME280;38320;39.764;2.710;2023-09-12T10:38:32;100917.59;;;26.51;63.70
52393;BME280;38320;39.764;2.710;2023-09-12T10:41:00;100915.69;;;26.45;63.90
52393;BME280;38320;39.764;2.710;2023-09-12T10:43:28;100923.91;;;26.58;63.93
52393;BME280;38320;39.764;2.710;2023-09-12T10:45:56;100918.00;;;26.41;65.22
52393;BME280;38320;39.764;2.710;2023-09-12T10:48:22;100912.94;;;26.31;65.73
52393;BME280;38320;39.764;2.710;2023-09-12T10:50:48;100920.72;;;26.41;64.45
52393;BME280;38320;39.764;2.710;2023-09-12T10:53:15;100921.78;;;26.47;64.02
52393;BME280;38320;39.764;2.710;2023-09-12T10:55:41;100916.13;;;26.42;63.76
52393;BME280;38320;39.764;2.710;2023-09-12T10:58:10;100918.63;;;26.50;64.58
52393;BME280;38320;39.764;2.710;2023-09-12T11:00:38;100916.34;;;26.54;64.74
52393;BME280;38320;39.764;2.710;2023-09-12T11:05:53;100918.03;;;26.61;63.96
52393;BME280;38320;39.764;2.710;2023-09-12T11:08:19;100922.25;;;26.64;63.69
52393;BME280;38320;39.764;2.710;2023-09-12T11:10:44;100918.91;;;26.69;63.77
52393;BME280;38320;39.764;2.710;2023-09-12T11:13:17;100915.97;;;26.77;63.50
52393;BME280;38320;39.764;2.710;2023-09-12T11:16:09;100906.53;;;26.80;63.19
52393;BME280;38320;39.764;2.710;2023-09-12T11:21:40;100902.13;;;26.79;63.26
52393;BME280;38320;39.764;2.710;2023-09-12T11:24:06;100902.34;;;26.84;63.40
52393;BME280;38320;39.764;2.710;2023-09-12T11:26:32;100907.16;;;26.82;63.21
52393;BME280;38320;39.764;2.710;2023-09-12T11:29:10;100897.31;;;26.74;63.53
52393;BME280;38320;39.764;2.710;2023-09-12T11:31:37;100903.34;;;26.62;66.00
52393;BME280;38320;39.764;2.710;2023-09-12T11:34:09;100899.16;;;26.67;64.63
52393;BME280;38320;39.764;2.710;2023-09-12T11:36:41;100906.94;;;26.70;63.90
52393;BME280;38320;39.764;2.710;2023-09-12T11:39:28;100902.94;;;26.59;65.47
52393;BME280;38320;39.764;2.710;2023-09-12T11:41:56;100910.91;;;26.67;66.14
52393;BME280;38320;39.764;2.710;2023-09-12T11:44:22;100900.00;;;26.60;65.36
52393;BME280;38320;39.764;2.710;2023-09-12T11:46:49;100901.28;;;26.71;64.57
52393;BME280;38320;39.764;2.710;2023-09-12T11:49:15;100882.81;;;26.73;64.38
52393;BME280;38320;39.764;2.710;2023-09-12T11:54:24;100891.66;;;26.82;64.08
52393;BME280;38320;39.764;2.710;2023-09-12T11:56:50;100888.94;;;26.82;65.41
52393;BME280;38320;39.764;2.710;2023-09-12T11:59:22;100892.94;;;26.86;64.57
52393;BME280;38320;39.764;2.710;2023-09-12T12:01:48;100881.78;;;26.81;65.02
52393;BME280;38320;39.764;2.710;2023-09-12T12:04:14;100888.50;;;26.85;65.43
52393;BME280;38320;39.764;2.710;2023-09-12T12:06:40;100888.72;;;26.90;64.53
52393;BME280;38320;39.764;2.710;2023-09-12T12:09:06;100887.25;;;26.88;64.12
52393;BME280;38320;39.764;2.710;2023-09-12T12:11:32;100894.41;;;26.96;64.15
52393;BME280;38320;39.764;2.710;2023-09-12T12:13:57;100894.19;;;26.90;64.23
52393;BME280;38320;39.764;2.710;2023-09-12T12:16:25;100897.72;;;26.84;64.32
52393;BME280;38320;39.764;2.710;2023-09-12T12:18:51;100907.19;;;26.88;63.89
52393;BME280;38320;39.764;2.710;2023-09-12T12:21:20;100905.53;;;26.87;63.85
52393;BME280;38320;39.764;2.710;2023-09-12T12:23:46;100905.09;;;26.97;63.70
52393;BME280;38320;39.764;2.710;2023-09-12T12:26:11;100895.88;;;26.98;63.61
52393;BME280;38320;39.764;2.710;2023-09-12T12:28:37;100891.03;;;27.00;63.01
52393;BME280;38320;39.764;2.710;2023-09-12T12:31:03;100905.31;;;27.09;62.89
52393;BME280;38320;39.764;2.710;2023-09-12T12:33:29;100903.22;;;27.11;62.93
52393;BME280;38320;39.764;2.710;2023-09-12T12:36:02;100915.56;;;27.14;62.47
52393;BME280;38320;39.764;2.710;2023-09-12T12:38:35;100900.06;;;27.14;62.95
52393;BME280;38320;39.764;2.710;2023-09-12T12:41:01;100893.34;;;27.10;62.92
52393;BME280;38320;39.764;2.710;2023-09-12T12:43:26;100886.22;;;27.16;62.45
52393;BME280;38320;39.764;2.710;2023-09-12T12:45:57;100872.78;;;27.14;62.45
52393;BME280;38320;39.764;2.710;2023-09-12T12:48:34;100872.78;;;27.21;62.05
52393;BME280;38320;39.764;2.710;2023-09-12T12:51:05;100858.09;;;27.22;62.11
52393;BME280;38320;39.764;2.710;2023-09-12T12:53:41;100850.31;;;27.26;62.00
52393;BME280;38320;39.764;2.710;2023-09-12T12:56:08;100849.25;;;27.27;61.84
52393;BME280;38320;39.764;2.710;2023-09-12T12:58:33;100853.66;;;27.28;62.07
52393;BME280;38320;39.764;2.710;2023-09-12T13:01:00;100858.94;;;27.29;61.43
52393;BME280;38320;39.764;2.710;2023-09-12T13:03:26;100872.34;;;27.31;61.68
52393;BME280;38320;39.764;2.710;2023-09-12T13:05:51;100870.66;;;27.30;61.30
52393;BME280;38320;39.764;2.710;2023-09-12T13:08:17;100871.91;;;27.34;61.49
52393;BME280;38320;39.764;2.710;2023-09-12T13:10:43;100871.50;;;27.30;61.28
52393;BME280;38320;39.764;2.710;2023-09-12T13:13:10;100865.19;;;27.30;61.29
52393;BME280;38320;39.764;2.710;2023-09-12T13:15:36;100865.00;;;27.31;61.32
52393;BME280;38320;39.764;2.710;2023-09-12T13:18:01;100874.63;;;27.34;61.51
52393;BME280;38320;39.764;2.710;2023-09-12T13:20:27;100882.44;;;27.30;60.90
52393;BME280;38320;39.764;2.710;2023-09-12T13:22:52;100880.94;;;27.28;61.30
52393;BME280;38320;39.764;2.710;2023-09-12T13:25:18;100880.94;;;27.28;61.11
52393;BME280;38320;39.764;2.710;2023-09-12T13:27:44;100866.25;;;27.29;61.01
52393;BME280;38320;39.764;2.710;2023-09-12T13:30:10;100863.72;;;27.34;60.95
52393;BME280;38320;39.764;2.710;2023-09-12T13:32:36;100849.69;;;27.30;60.73
52393;BME280;38320;39.764;2.710;2023-09-12T13:35:01;100863.09;;;27.32;60.93
52393;BME280;38320;39.764;2.710;2023-09-12T13:37:27;100866.06;;;27.30;61.23
52393;BME280;38320;39.764;2.710;2023-09-12T13:39:54;100846.97;;;27.30;61.06
52393;BME280;38320;39.764;2.710;2023-09-12T13:42:19;100830.59;;;27.24;60.78
52393;BME280;38320;39.764;2.710;2023-09-12T13:44:49;100850.06;;;27.34;62.68
52393;BME280;38320;39.764;2.710;2023-09-12T13:47:14;100857.63;;;27.32;61.92
52393;BME280;38320;39.764;2.710;2023-09-12T13:49:47;100865.63;;;27.33;61.06
52393;BME280;38320;39.764;2.710;2023-09-12T13:52:12;100826.81;;;27.25;60.88
52393;BME280;38320;39.764;2.710;2023-09-12T13:54:39;100832.66;;;27.35;61.22
52393;BME280;38320;39.764;2.710;2023-09-12T13:57:04;100830.78;;;27.36;61.29
52393;BME280;38320;39.764;2.710;2023-09-12T13:59:30;100827.63;;;27.32;61.17
52393;BME280;38320;39.764;2.710;2023-09-12T14:01:55;100824.47;;;27.35;61.46
52393;BME280;38320;39.764;2.710;2023-09-12T14:04:21;100829.53;;;27.38;60.81
52393;BME280;38320;39.764;2.710;2023-09-12T14:06:46;100815.91;;;27.31;60.88
52393;BME280;38320;39.764;2.710;2023-09-12T14:09:12;100824.69;;;27.40;60.86
52393;BME280;38320;39.764;2.710;2023-09-12T14:11:37;100820.69;;;27.43;61.01
52393;BME280;38320;39.764;2.710;2023-09-12T14:14:04;100807.47;;;27.40;60.85
52393;BME280;38320;39.764;2.710;2023-09-12T14:16:30;100817.72;;;27.44;60.71
52393;BME280;38320;39.764;2.710;2023-09-12T14:18:55;100804.53;;;27.41;60.82
52393;BME280;38320;39.764;2.710;2023-09-12T14:21:21;100804.09;;;27.44;61.12
52393;BME280;38320;39.764;2.710;2023-09-12T14:23:46;100795.50;;;27.41;60.62
52393;BME280;38320;39.764;2.710;2023-09-12T14:26:12;100798.63;;;27.44;60.50
52393;BME280;38320;39.764;2.710;2023-09-12T14:28:37;100793.59;;;27.41;60.67
52393;BME280;38320;39.764;2.710;2023-09-12T14:31:03;100813.50;;;27.49;60.48
52393;BME280;38320;39.764;2.710;2023-09-12T14:33:30;100817.28;;;27.47;60.64
52393;BME280;38320;39.764;2.710;2023-09-12T14:35:56;100811.00;;;27.47;60.70
52393;BME280;38320;39.764;2.710;2023-09-12T14:38:21;100803.88;;;27.46;60.51
52393;BME280;38320;39.764;2.710;2023-09-12T14:40:47;100810.41;;;27.45;60.30
52393;BME280;38320;39.764;2.710;2023-09-12T14:43:12;100828.22;;;27.47;60.33
52393;BME280;38320;39.764;2.710;2023-09-12T14:45:38;100818.97;;;27.49;60.23
52393;BME280;38320;39.764;2.710;2023-09-12T14:48:04;100753.28;;;27.50;60.26
52393;BME280;38320;39.764;2.710;2023-09-12T14:50:30;100685.03;;;27.50;59.89
52393;BME280;38320;39.764;2.710;2023-09-12T14:52:56;100682.31;;;27.50;60.07
52393;BME280;38320;39.764;2.710;2023-09-12T14:55:22;100750.34;;;27.52;59.93
52393;BME280;38320;39.764;2.710;2023-09-12T14:57:47;100784.97;;;27.51;62.75
52393;BME280;38320;39.764;2.710;2023-09-12T15:00:14;100769.47;;;27.45;62.06
52393;BME280;38320;39.764;2.710;2023-09-12T15:02:39;100781.81;;;27.47;61.14
52393;BME280;38320;39.764;2.710;2023-09-12T15:05:07;100802.59;;;27.49;60.54
52393;BME280;38320;39.764;2.710;2023-09-12T15:07:33;100799.88;;;27.49;60.69
52393;BME280;38320;39.764;2.710;2023-09-12T15:09:59;100814.38;;;27.49;60.53
52393;BME280;38320;39.764;2.710;2023-09-12T15:12:25;100821.50;;;27.50;60.40
52393;BME280;38320;39.764;2.710;2023-09-12T15:14:51;100828.00;;;27.49;60.41
52393;BME280;38320;39.764;2.710;2023-09-12T15:17:19;100832.84;;;27.47;60.49
52393;BME280;38320;39.764;2.710;2023-09-12T15:19:45;100838.31;;;27.47;60.45
52393;BME280;38320;39.764;2.710;2023-09-12T15:22:11;100831.38;;;27.44;60.44
52393;BME280;38320;39.764;2.710;2023-09-12T15:24:36;100817.75;;;27.38;60.45
52393;BME280;38320;39.764;2.710;2023-09-12T15:27:01;100848.63;;;27.31;64.52
52393;BME280;38320;39.764;2.710;2023-09-12T15:29:27;100852.59;;;27.36;62.12
52393;BME280;38320;39.764;2.710;2023-09-12T15:31:53;100837.28;;;27.35;62.64
52393;BME280;38320;39.764;2.710;2023-09-12T15:34:20;100845.03;;;27.38;61.41
52393;BME280;38320;39.764;2.710;2023-09-12T15:36:46;100840.63;;;27.37;61.10
52393;BME280;38320;39.764;2.710;2023-09-12T15:39:13;100850.06;;;27.41;61.05
52393;BME280;38320;39.764;2.710;2023-09-12T15:41:38;100847.13;;;27.42;60.71
52393;BME280;38320;39.764;2.710;2023-09-12T15:44:04;100840.81;;;27.42;60.96
52393;BME280;38320;39.764;2.710;2023-09-12T15:46:30;100859.28;;;27.46;60.59
52393;BME280;38320;39.764;2.710;2023-09-12T15:48:55;100855.50;;;27.47;60.53
52393;BME280;38320;39.764;2.710;2023-09-12T15:51:21;100852.59;;;27.42;60.38
52393;BME280;38320;39.764;2.710;2023-09-12T15:53:47;100862.00;;;27.46;60.38
52393;BME280;38320;39.764;2.710;2023-09-12T15:56:12;100873.56;;;27.49;60.90
52393;BME280;38320;39.764;2.710;2023-09-12T15:58:38;100877.34;;;27.47;60.25
52393;BME280;38320;39.764;2.710;2023-09-12T16:01:03;100889.09;;;27.48;60.60
52393;BME280;38320;39.764;2.710;2023-09-12T16:03:31;100896.03;;;27.51;60.77
52393;BME280;38320;39.764;2.710;2023-09-12T16:05:56;100899.81;;;27.50;60.62
52393;BME280;38320;39.764;2.710;2023-09-12T16:08:22;100898.75;;;27.51;60.54
52393;BME280;38320;39.764;2.710;2023-09-12T16:10:48;100893.31;;;27.44;60.72
52393;BME280;38320;39.764;2.710;2023-09-12T16:13:14;100902.53;;;27.50;60.53
52393;BME280;38320;39.764;2.710;2023-09-12T16:15:40;100896.66;;;27.46;60.63
52393;BME280;38320;39.764;2.710;2023-09-12T16:18:05;100887.63;;;27.45;60.61
52393;BME280;38320;39.764;2.710;2023-09-12T16:20:31;100887.44;;;27.47;61.07
52393;BME280;38320;39.764;2.710;2023-09-12T16:22:56;100887.19;;;27.49;60.95
52393;BME280;38320;39.764;2.710;2023-09-12T16:25:22;100895.63;;;27.54;60.77
52393;BME280;38320;39.764;2.710;2023-09-12T16:27:47;100875.66;;;27.46;60.91
52393;BME280;38320;39.764;2.710;2023-09-12T16:30:13;100891.22;;;27.53;60.59
52393;BME280;38320;39.764;2.710;2023-09-12T16:32:38;100896.25;;;27.56;61.01
52393;BME280;38320;39.764;2.710;2023-09-12T16:35:05;100900.03;;;27.55;60.42
52393;BME280;38320;39.764;2.710;2023-09-12T16:37:31;100896.03;;;27.57;60.79
52393;BME280;38320;39.764;2.710;2023-09-12T16:39:57;100878.19;;;27.48;60.75
52393;BME280;38320;39.764;2.710;2023-09-12T16:42:23;100890.59;;;27.57;61.15
52393;BME280;38320;39.764;2.710;2023-09-12T16:44:48;100886.19;;;27.56;60.68
52393;BME280;38320;39.764;2.710;2023-09-12T16:47:14;100909.47;;;27.59;61.44
52393;BME280;38320;39.764;2.710;2023-09-12T16:50:04;100904.00;;;27.59;61.43
52393;BME280;38320;39.764;2.710;2023-09-12T16:52:30;100893.94;;;27.53;61.19
52393;BME280;38320;39.764;2.710;2023-09-12T16:54:56;100895.63;;;27.54;60.73
52393;BME280;38320;39.764;2.710;2023-09-12T16:57:21;100898.34;;;27.54;61.36
52393;BME280;38320;39.764;2.710;2023-09-12T16:59:47;100903.38;;;27.57;60.97
52393;BME280;38320;39.764;2.710;2023-09-12T17:02:13;100897.50;;;27.53;60.91
52393;BME280;38320;39.764;2.710;2023-09-12T17:04:39;100893.06;;;27.52;61.45
52393;BME280;38320;39.764;2.710;2023-09-12T17:07:07;100889.53;;;27.52;60.87
52393;BME280;38320;39.764;2.710;2023-09-12T17:09:33;100892.91;;;27.54;61.23
52393;BME280;38320;39.764;2.710;2023-09-12T17:11:58;100896.69;;;27.53;60.64
52393;BME280;38320;39.764;2.710;2023-09-12T17:14:24;100881.13;;;27.46;61.13
52393;BME280;38320;39.764;2.710;2023-09-12T17:16:49;100887.63;;;27.45;60.75
52393;BME280;38320;39.764;2.710;2023-09-12T17:19:15;100865.19;;;27.43;61.13
52393;BME280;38320;39.764;2.710;2023-09-12T17:21:40;100870.63;;;27.50;61.20
52393;BME280;38320;39.764;2.710;2023-09-12T17:24:06;100879.88;;;27.42;60.67
52393;BME280;38320;39.764;2.710;2023-09-12T17:26:31;100883.25;;;27.38;61.46
52393;BME280;38320;39.764;2.710;2023-09-12T17:28:57;100910.94;;;27.41;62.13
52393;BME280;38320;39.764;2.710;2023-09-12T17:31:23;100894.13;;;27.44;61.71
52393;BME280;38320;39.764;2.710;2023-09-12T17:33:48;100878.63;;;27.45;61.24
52393;BME280;38320;39.764;2.710;2023-09-12T17:36:14;100881.13;;;27.40;60.93
52393;BME280;38320;39.764;2.710;2023-09-12T17:38:40;100876.28;;;27.42;60.66
52393;BME280;38320;39.764;2.710;2023-09-12T17:41:05;100872.31;;;27.44;60.91
52393;BME280;38320;39.764;2.710;2023-09-12T17:43:31;100871.69;;;27.42;60.83
52393;BME280;38320;39.764;2.710;2023-09-12T17:45:56;100869.38;;;27.46;60.69
52393;BME280;38320;39.764;2.710;2023-09-12T17:48:22;100863.50;;;27.42;60.53
52393;BME280;38320;39.764;2.710;2023-09-12T17:50:51;100863.06;;;27.45;60.38
52393;BME280;38320;39.764;2.710;2023-09-12T17:53:17;100872.94;;;27.46;60.64
52393;BME280;38320;39.764;2.710;2023-09-12T17:55:46;100874.59;;;27.47;60.79
52393;BME280;38320;39.764;2.710;2023-09-12T17:58:13;100878.38;;;27.46;61.40
52393;BME280;38320;39.764;2.710;2023-09-12T18:00:38;100883.03;;;27.46;61.31
52393;BME280;38320;39.764;2.710;2023-09-12T18:03:04;100880.31;;;27.39;61.41
52393;BME280;38320;39.764;2.710;2023-09-12T18:05:29;100891.66;;;27.43;61.31
52393;BME280;38320;39.764;2.710;2023-09-12T18:07:56;100895.38;;;27.42;60.98
52393;BME280;38320;39.764;2.710;2023-09-12T18:10:22;100896.69;;;27.39;61.70
52393;BME280;38320;39.764;2.710;2023-09-12T18:12:48;100905.91;;;27.38;61.03
52393;BME280;38320;39.764;2.710;2023-09-12T18:15:13;100907.16;;;27.42;62.00
52393;BME280;38320;39.764;2.710;2023-09-12T18:17:39;100898.34;;;27.40;61.45
52393;BME280;38320;39.764;2.710;2023-09-12T18:20:06;100903.59;;;27.42;60.70
52393;BME280;38320;39.764;2.710;2023-09-12T18:22:33;100902.56;;;27.43;60.85
52393;BME280;38320;39.764;2.710;2023-09-12T18:24:59;100914.50;;;27.42;60.67
52393;BME280;38320;39.764;2.710;2023-09-12T18:27:25;100911.75;;;27.42;60.32
52393;BME280;38320;39.764;2.710;2023-09-12T18:29:52;100908.41;;;27.46;60.67
52393;BME280;38320;39.764;2.710;2023-09-12T18:32:17;100897.72;;;27.45;60.65
52393;BME280;38320;39.764;2.710;2023-09-12T18:34:43;100905.06;;;27.44;60.46
52393;BME280;38320;39.764;2.710;2023-09-12T18:37:08;100897.72;;;27.45;60.55
52393;BME280;38320;39.764;2.710;2023-09-12T18:39:34;100897.09;;;27.50;60.66
52393;BME280;38320;39.764;2.710;2023-09-12T18:42:00;100896.84;;;27.51;60.59
52393;BME280;38320;39.764;2.710;2023-09-12T18:44:26;100890.16;;;27.47;60.24
52393;BME280;38320;39.764;2.710;2023-09-12T18:46:51;100894.75;;;27.46;60.71
52393;BME280;38320;39.764;2.710;2023-09-12T18:49:17;100905.69;;;27.46;60.62
52393;BME280;38320;39.764;2.710;2023-09-12T18:51:43;100890.97;;;27.47;60.56
52393;BME280;38320;39.764;2.710;2023-09-12T18:54:17;100927.31;;;27.55;60.22
52393;BME280;38320;39.764;2.710;2023-09-12T18:56:43;100930.25;;;27.53;60.65
52393;BME280;38320;39.764;2.710;2023-09-12T18:59:08;100914.91;;;27.52;60.57
52393;BME280;38320;39.764;2.710;2023-09-12T19:01:34;100911.78;;;27.55;60.37
52393;BME280;38320;39.764;2.710;2023-09-12T19:04:26;100922.50;;;27.57;60.37
52393;BME280;38320;39.764;2.710;2023-09-12T19:06:51;100922.06;;;27.53;60.45
52393;BME280;38320;39.764;2.710;2023-09-12T19:09:18;100912.59;;;27.49;60.07
52393;BME280;38320;39.764;2.710;2023-09-12T19:11:45;100915.78;;;27.53;60.36
52393;BME280;38320;39.764;2.710;2023-09-12T19:14:10;100900.00;;;27.48;60.47
52393;BME280;38320;39.764;2.710;2023-09-12T19:16:36;100899.16;;;27.47;60.42
52393;BME280;38320;39.764;2.710;2023-09-12T19:19:01;100922.28;;;27.52;60.51
52393;BME280;38320;39.764;2.710;2023-09-12T19:21:28;100922.47;;;27.50;60.66
52393;BME280;38320;39.764;2.710;2023-09-12T19:23:54;100909.88;;;27.42;60.39
52393;BME280;38320;39.764;2.710;2023-09-12T19:26:19;100911.38;;;27.45;60.59
52393;BME280;38320;39.764;2.710;2023-09-12T19:28:45;100907.59;;;27.46;60.46
52393;BME280;38320;39.764;2.710;2023-09-12T19:31:10;100916.59;;;27.53;60.46
52393;BME280;38320;39.764;2.710;2023-09-12T19:33:36;100914.72;;;27.47;60.73
52393;BME280;38320;39.764;2.710;2023-09-12T19:36:02;100913.84;;;27.46;60.70
52393;BME280;38320;39.764;2.710;2023-09-12T19:38:27;100914.09;;;27.52;60.45
52393;BME280;38320;39.764;2.710;2023-09-12T19:41:00;100910.31;;;27.53;60.59
52393;BME280;38320;39.764;2.710;2023-09-12T19:43:26;100910.50;;;27.51;60.51
52393;BME280;38320;39.764;2.710;2023-09-12T19:45:52;100905.47;;;27.48;61.05
52393;BME280;38320;39.764;2.710;2023-09-12T19:48:20;100914.72;;;27.47;60.50
52393;BME280;38320;39.764;2.710;2023-09-12T19:50:46;100902.13;;;27.46;60.66
52393;BME280;38320;39.764;2.710;2023-09-12T19:53:12;100908.63;;;27.52;60.52
52393;BME280;38320;39.764;2.710;2023-09-12T19:55:42;100894.75;;;27.46;60.31
52393;BME280;38320;39.764;2.710;2023-09-12T19:58:07;100901.88;;;27.47;60.58
52393;BME280;38320;39.764;2.710;2023-09-12T20:00:33;100903.38;;;27.50;60.78
52393;BME280;38320;39.764;2.710;2023-09-12T20:02:58;100889.31;;;27.46;60.61
52393;BME280;38320;39.764;2.710;2023-09-12T20:05:24;100898.09;;;27.49;60.73
52393;BME280;38320;39.764;2.710;2023-09-12T20:07:50;100893.94;;;27.46;60.79
52393;BME280;38320;39.764;2.710;2023-09-12T20:10:16;100884.91;;;27.45;60.52
52393;BME280;38320;39.764;2.710;2023-09-12T20:12:46;100889.91;;;27.49;60.11
52393;BME280;38320;39.764;2.710;2023-09-12T20:15:11;100892.44;;;27.50;60.32
52393;BME280;38320;39.764;2.710;2023-09-12T20:17:37;100882.16;;;27.45;60.23
52393;BME280;38320;39.764;2.710;2023-09-12T20:20:03;100891.63;;;27.50;60.25
52393;BME280;38320;39.764;2.710;2023-09-12T20:22:28;100891.22;;;27.46;60.39
52393;BME280;38320;39.764;2.710;2023-09-12T20:24:54;100879.47;;;27.39;60.17
52393;BME280;38320;39.764;2.710;2023-09-12T20:27:19;100897.28;;;27.48;60.22
52393;BME280;38320;39.764;2.710;2023-09-12T20:29:45;100874.00;;;27.39;60.15
52393;BME280;38320;39.764;2.710;2023-09-12T20:32:10;100900.22;;;27.46;60.37
52393;BME280;38320;39.764;2.710;2023-09-12T20:34:35;100901.88;;;27.47;60.53
52393;BME280;38320;39.764;2.710;2023-09-12T20:37:01;100905.69;;;27.46;60.59
52393;BME280;38320;39.764;2.710;2023-09-12T20:39:29;100914.72;;;27.47;60.49
52393;BME280;38320;39.764;2.710;2023-09-12T20:41:55;100908.00;;;27.43;60.38
52393;BME280;38320;39.764;2.710;2023-09-12T20:44:22;100907.16;;;27.42;59.95
52393;BME280;38320;39.764;2.710;2023-09-12T20:46:48;100907.38;;;27.41;60.19
52393;BME280;38320;39.764;2.710;2023-09-12T20:49:14;100915.56;;;27.41;60.13
52393;BME280;38320;39.764;2.710;2023-09-12T20:51:44;100910.53;;;27.38;59.98
52393;BME280;38320;39.764;2.710;2023-09-12T20:54:11;100912.00;;;27.40;59.87
52393;BME280;38320;39.764;2.710;2023-09-12T20:56:37;100913.69;;;27.41;59.94
52393;BME280;38320;39.764;2.710;2023-09-12T20:59:06;100919.75;;;27.43;59.94
52393;BME280;38320;39.764;2.710;2023-09-12T21:01:32;100916.81;;;27.45;60.11
52393;BME280;38320;39.764;2.710;2023-09-12T21:03:58;100908.03;;;27.36;59.52
52393;BME280;38320;39.764;2.710;2023-09-12T21:06:24;100918.06;;;27.42;59.51
52393;BME280;38320;39.764;2.710;2023-09-12T21:08:50;100906.56;;;27.33;59.41
52393;BME280;38320;39.764;2.710;2023-09-12T21:11:16;100922.69;;;27.42;59.44
52393;BME280;38320;39.764;2.710;2023-09-12T21:13:42;100928.13;;;27.42;59.40
52393;BME280;38320;39.764;2.710;2023-09-12T21:16:08;100921.66;;;27.36;59.70
52393;BME280;38320;39.764;2.710;2023-09-12T21:18:33;100932.16;;;27.39;59.60
52393;BME280;38320;39.764;2.710;2023-09-12T21:20:59;100921.88;;;27.35;59.74
52393;BME280;38320;39.764;2.710;2023-09-12T21:23:24;100930.06;;;27.35;59.69
52393;BME280;38320;39.764;2.710;2023-09-12T21:25:50;100937.59;;;27.39;59.44
52393;BME280;38320;39.764;2.710;2023-09-12T21:28:16;100944.53;;;27.35;59.34
52393;BME280;38320;39.764;2.710;2023-09-12T21:30:42;100942.44;;;27.37;59.47
52393;BME280;38320;39.764;2.710;2023-09-12T21:33:07;100956.09;;;27.37;59.12
52393;BME280;38320;39.764;2.710;2023-09-12T21:35:32;100960.06;;;27.35;59.16
52393;BME280;38320;39.764;2.710;2023-09-12T21:37:58;100963.41;;;27.37;59.53
52393;BME280;38320;39.764;2.710;2023-09-12T21:40:24;100973.28;;;27.38;59.34
52393;BME280;38320;39.764;2.710;2023-09-12T21:42:49;100975.19;;;27.30;59.37
52393;BME280;38320;39.764;2.710;2023-09-12T21:45:15;100969.72;;;27.24;59.68
52393;BME280;38320;39.764;2.710;2023-09-12T21:47:42;100972.47;;;27.30;59.60
52393;BME280;38320;39.764;2.710;2023-09-12T21:50:08;100971.41;;;27.31;59.17
52393;BME280;38320;39.764;2.710;2023-09-12T21:52:34;100969.31;;;27.33;59.21